Time;durP1;ratioP1;P1;durP2;ratioP2;P2;SDS_P1;SDS_P2;PMS_P1;PMS_P2;Temp;Humidity;BMP_temperature;BMP_pressure;BME280_temperature;BME280_humidity;BME280_pressure;Samples;Min_cycle;Max_cycle;Signal;HPM_P1;HPM_P2
2023/02/22 00:00:22;;;;;;;;;;;;;;;;;;5070603;28;1319;-41
2023/02/22 00:02:50;;;;;;;;;;;;;;;;;;5070490;28;1684;-41
2023/02/22 00:05:23;;;;;;;;;;;;;;;;;;5070639;28;1681;-43
2023/02/22 00:07:50;;;;;;;;;;;;;;;;;;5070881;28;1418;-41
2023/02/22 00:10:19;;;;;;;;;;;;;;;;;;5070604;28;1220;-40
2023/02/22 00:12:49;;;;;;;;;;;;;;;;;;5070439;28;1327;-45
2023/02/22 00:15:18;;;;;;;;;;;;;;;;;;5086094;28;2082;-41
2023/02/22 00:17:45;;;;;;;;;;;;;;;;;;5070655;28;1583;-42
2023/02/22 00:20:13;;;;;;;;;;;;;;;;;;5070684;28;1518;-45
2023/02/22 00:22:45;;;;;;;;;;;;;;;;;;5070428;28;1963;-42
2023/02/22 00:25:13;;;;;;;;;;;;;;;;;;5073129;28;986;-42
2023/02/22 00:27:40;;;;;;;;;;;;;;;;;;5073928;28;1212;-43
2023/02/22 00:30:08;;;;;;;;;;;;;;;;;;5073939;28;1956;-46
2023/02/22 00:32:35;;;;;;;;;;;;;;;;;;5074053;28;1551;-47
2023/02/22 00:35:07;;;;;;;;;;;;;;;;;;5089293;28;1967;-42
2023/02/22 00:37:35;;;;;;;;;;;;;;;;;;5073838;28;1837;-42
2023/02/22 00:40:07;;;;;;;;;;;;;;;;;;5073972;28;1463;-42
2023/02/22 00:42:34;;;;;;;;;;;;;;;;;;5073880;28;2010;-42
2023/02/22 00:45:02;;;;;;;;;;;;;;;;;;5073992;28;1585;-43
2023/02/22 00:47:30;;;;;;;;;;;;;;;;;;5073826;28;1112;-43
2023/02/22 00:49:57;;;;;;;;;;;;;;;;;;5055287;28;1683;-42
2023/02/22 00:52:24;;;;;;;;;;;;;;;;;;5089275;28;1662;-40
2023/02/22 00:54:52;;;;;;;;;;;;;;;;;;5073576;28;1965;-41
2023/02/22 00:57:20;;;;;;;;;;;;;;;;;;5073784;28;1398;-41
2023/02/22 00:59:47;;;;;;;;;;;;;;;;;;5055639;28;1356;-39
2023/02/22 01:02:16;;;;;;;;;;;;;;;;;;5073522;28;1569;-40
2023/02/22 01:04:43;;;;;;;;;;;;;;;;;;5076973;28;1514;-40
2023/02/22 01:07:11;;;;;;;;;;;;;;;;;;5093510;28;1261;-40
2023/02/22 01:09:38;;;;;;;;;;;;;;;;;;5093562;28;2075;-42
2023/02/22 01:12:06;;;;;;;;;;;;;;;;;;5075610;28;2422;-40
2023/02/22 01:14:34;;;;;;;;;;;;;;;;;;5093364;28;2032;-43
2023/02/22 01:17:01;;;;;;;;;;;;;;;;;;5093477;28;1647;-39
2023/02/22 01:19:28;;;;;;;;;;;;;;;;;;5075252;28;2362;-40
2023/02/22 01:21:56;;;;;;;;;;;;;;;;;;5093495;28;1479;-46
2023/02/22 01:24:23;;;;;;;;;;;;;;;;;;5075271;28;2098;-38
2023/02/22 01:26:52;;;;;;;;;;;;;;;;;;5075315;28;2159;-40
2023/02/22 01:29:20;;;;;;;;;;;;;;;;;;5093291;28;1723;-38
2023/02/22 01:31:53;;;;;;;;;;;;;;;;;;5093081;28;1793;-44
2023/02/22 01:34:21;;;;;;;;;;;;;;;;;;5074895;28;2117;-46
2023/02/22 01:36:49;;;;;;;;;;;;;;;;;;5093327;28;1721;-42
2023/02/22 01:39:16;;;;;;;;;;;;;;;;;;5093030;28;1418;-43
2023/02/22 01:41:44;;;;;;;;;;;;;;;;;;5093012;28;1372;-39
2023/02/22 01:44:31;;;;;;;;;;;;;;;;;;5092939;28;2014;-44
2023/02/22 01:47:00;;;;;;;;;;;;;;;;;;5092898;28;1698;-44
2023/02/22 01:49:35;;;;;;;;;;;;;;;;;;5092981;28;1561;-39
2023/02/22 01:52:07;;;;;;;;;;;;;;;;;;5092754;28;1407;-43
2023/02/22 01:54:38;;;;;;;;;;;;;;;;;;5092577;28;2002;-41
2023/02/22 01:57:15;;;;;;;;;;;;;;;;;;5092757;28;2219;-43
2023/02/22 01:59:44;;;;;;;;;;;;;;;;;;5092794;28;2156;-45
2023/02/22 02:02:12;;;;;;;;;;;;;;;;;;5092764;28;2184;-40
2023/02/22 02:04:41;;;;;;;;;;;;;;;;;;5089174;28;1473;-44
2023/02/22 02:07:11;;;;;;;;;;;;;;;;;;5054940;28;1458;-44
2023/02/22 02:09:53;;;;;;;;;;;;;;;;;;5072013;28;1302;-44
2023/02/22 02:12:22;;;;;;;;;;;;;;;;;;5072037;28;1356;-42
2023/02/22 02:14:51;;;;;;;;;;;;;;;;;;5072181;28;2014;-44
2023/02/22 02:17:20;;;;;;;;;;;;;;;;;;5072172;28;1698;-42
2023/02/22 02:19:56;;;;;;;;;;;;;;;;;;5054137;28;1455;-42
2023/02/22 02:22:31;;;;;;;;;;;;;;;;;;5054461;28;1845;-44
2023/02/22 02:25:16;;;;;;;;;;;;;;;;;;5071923;28;1279;-45
2023/02/22 02:27:44;;;;;;;;;;;;;;;;;;5053834;28;1739;-44
2023/02/22 02:30:49;;;;;;;;;;;;;;;;;;5071954;28;2021;-40
2023/02/22 02:33:25;;;;;;;;;;;;;;;;;;5009735;28;1764;-43
2023/02/22 02:36:01;;;;;;;;;;;;;;;;;;4993602;28;1919;-42
2023/02/22 02:38:46;;;;;;;;;;;;;;;;;;5047619;28;2021;-44
2023/02/22 02:41:32;;;;;;;;;;;;;;;;;;5071576;28;1818;-40
2023/02/22 02:44:03;;;;;;;;;;;;;;;;;;5071797;28;1993;-46
2023/02/22 02:46:52;;;;;;;;;;;;;;;;;;5070982;28;1402;-43
2023/02/22 02:49:24;;;;;;;;;;;;;;;;;;5071438;28;1647;-41
2023/02/22 02:51:52;;;;;;;;;;;;;;;;;;5071804;28;1926;-45
2023/02/22 02:54:20;;;;;;;;;;;;;;;;;;5071425;28;1438;-42
2023/02/22 02:56:51;;;;;;;;;;;;;;;;;;5053444;28;2029;-40
2023/02/22 02:59:29;;;;;;;;;;;;;;;;;;5071220;28;1303;-41
2023/02/22 03:02:11;;;;;;;;;;;;;;;;;;5053492;28;1846;-40
2023/02/22 03:04:44;;;;;;;;;;;;;;;;;;5074139;28;1585;-42
2023/02/22 03:07:24;;;;;;;;;;;;;;;;;;5091268;28;1742;-41
2023/02/22 03:10:13;;;;;;;;;;;;;;;;;;5072673;28;1745;-44
2023/02/22 03:12:59;;;;;;;;;;;;;;;;;;5071291;28;1769;-38
2023/02/22 03:15:27;;;;;;;;;;;;;;;;;;5053006;28;1933;-40
2023/02/22 03:18:06;;;;;;;;;;;;;;;;;;5070347;28;1926;-39
2023/02/22 03:20:49;;;;;;;;;;;;;;;;;;5070992;28;1294;-44
2023/02/22 03:23:31;;;;;;;;;;;;;;;;;;5071078;28;1614;-43
2023/02/22 03:26:08;;;;;;;;;;;;;;;;;;5070921;28;1642;-44
2023/02/22 03:28:39;;;;;;;;;;;;;;;;;;5053107;28;1813;-46
2023/02/22 03:31:29;;;;;;;;;;;;;;;;;;5052862;28;2055;-42
2023/02/22 03:34:09;;;;;;;;;;;;;;;;;;5052913;28;1889;-38
2023/02/22 03:36:44;;;;;;;;;;;;;;;;;;5052306;28;1968;-37
2023/02/22 03:39:14;;;;;;;;;;;;;;;;;;5052428;28;2241;-40
2023/02/22 03:41:47;;;;;;;;;;;;;;;;;;5053091;28;1974;-41
2023/02/22 03:44:16;;;;;;;;;;;;;;;;;;5053064;28;1745;-41
2023/02/22 03:46:45;;;;;;;;;;;;;;;;;;5052705;28;2019;-41
2023/02/22 03:49:18;;;;;;;;;;;;;;;;;;5052766;28;1598;-41
2023/02/22 03:51:46;;;;;;;;;;;;;;;;;;5070557;28;1812;-43
2023/02/22 03:54:15;;;;;;;;;;;;;;;;;;5052842;28;1874;-44
2023/02/22 03:56:50;;;;;;;;;;;;;;;;;;5052648;28;1910;-42
2023/02/22 03:59:26;;;;;;;;;;;;;;;;;;5054316;28;1418;-42
2023/02/22 04:01:54;;;;;;;;;;;;;;;;;;5074871;28;1838;-41
2023/02/22 04:04:22;;;;;;;;;;;;;;;;;;5057086;28;1347;-42
2023/02/22 04:06:50;;;;;;;;;;;;;;;;;;5074868;28;1764;-42
2023/02/22 04:09:18;;;;;;;;;;;;;;;;;;5056407;28;1239;-39
2023/02/22 04:11:45;;;;;;;;;;;;;;;;;;5074511;28;1433;-41
2023/02/22 04:14:13;;;;;;;;;;;;;;;;;;5074505;28;1793;-41
2023/02/22 04:16:41;;;;;;;;;;;;;;;;;;5056316;28;1907;-42
2023/02/22 04:19:09;;;;;;;;;;;;;;;;;;5055977;28;1379;-43
2023/02/22 04:21:37;;;;;;;;;;;;;;;;;;5056457;28;1810;-42
2023/02/22 04:24:10;;;;;;;;;;;;;;;;;;5056301;28;1495;-43
2023/02/22 04:26:40;;;;;;;;;;;;;;;;;;5068577;28;2094;-41
2023/02/22 04:29:07;;;;;;;;;;;;;;;;;;5076233;28;1993;-40
2023/02/22 04:31:37;;;;;;;;;;;;;;;;;;5076193;28;2059;-39
2023/02/22 04:34:05;;;;;;;;;;;;;;;;;;5076202;28;1998;-42
2023/02/22 04:36:36;;;;;;;;;;;;;;;;;;5075928;28;1947;-40
2023/02/22 04:39:04;;;;;;;;;;;;;;;;;;5075849;28;1724;-39
2023/02/22 04:41:33;;;;;;;;;;;;;;;;;;5076003;28;1474;-44
2023/02/22 04:44:01;;;;;;;;;;;;;;;;;;5093983;28;2183;-39
2023/02/22 04:46:30;;;;;;;;;;;;;;;;;;5072685;28;1658;-42
2023/02/22 04:48:57;;;;;;;;;;;;;;;;;;5055716;28;1704;-38
2023/02/22 04:51:28;;;;;;;;;;;;;;;;;;5055816;28;1811;-46
2023/02/22 04:54:01;;;;;;;;;;;;;;;;;;5055980;28;1888;-43
2023/02/22 04:56:30;;;;;;;;;;;;;;;;;;5055600;28;2117;-48
2023/02/22 04:58:58;;;;;;;;;;;;;;;;;;5055838;28;1683;-43
2023/02/22 05:01:29;;;;;;;;;;;;;;;;;;5073699;28;1516;-38
2023/02/22 05:03:56;;;;;;;;;;;;;;;;;;5073337;28;1638;-38
2023/02/22 05:06:23;;;;;;;;;;;;;;;;;;5073781;28;2026;-40
2023/02/22 05:08:52;;;;;;;;;;;;;;;;;;5073826;28;2176;-38
2023/02/22 05:11:21;;;;;;;;;;;;;;;;;;5072959;28;1395;-42
2023/02/22 05:13:48;;;;;;;;;;;;;;;;;;5073440;28;1702;-38
2023/02/22 05:16:16;;;;;;;;;;;;;;;;;;5073270;28;1906;-39
2023/02/22 05:18:43;;;;;;;;;;;;;;;;;;5073198;28;1785;-40
2023/02/22 05:21:12;;;;;;;;;;;;;;;;;;5073044;28;1802;-40
2023/02/22 05:23:40;;;;;;;;;;;;;;;;;;5073357;28;1676;-43
2023/02/22 05:26:09;;;;;;;;;;;;;;;;;;5073135;28;1466;-38
2023/02/22 05:28:37;;;;;;;;;;;;;;;;;;5073080;28;1848;-37
2023/02/22 05:31:06;;;;;;;;;;;;;;;;;;5073100;28;1528;-38
2023/02/22 05:33:33;;;;;;;;;;;;;;;;;;5073174;28;1822;-38
2023/02/22 05:36:00;;;;;;;;;;;;;;;;;;5072891;28;1920;-39
2023/02/22 05:38:27;;;;;;;;;;;;;;;;;;5072909;28;1622;-38
2023/02/22 05:40:55;;;;;;;;;;;;;;;;;;5073131;28;2131;-40
2023/02/22 05:43:22;;;;;;;;;;;;;;;;;;5072813;28;1219;-38
2023/02/22 05:45:50;;;;;;;;;;;;;;;;;;5072613;28;2008;-38
2023/02/22 05:48:17;;;;;;;;;;;;;;;;;;5073051;28;1851;-38
2023/02/22 05:50:47;;;;;;;;;;;;;;;;;;5072845;28;1813;-38
2023/02/22 05:53:15;;;;;;;;;;;;;;;;;;5072509;28;1820;-39
2023/02/22 05:55:42;;;;;;;;;;;;;;;;;;5073153;28;1950;-37
2023/02/22 05:58:11;;;;;;;;;;;;;;;;;;5072407;28;1465;-37
2023/02/22 06:00:39;;;;;;;;;;;;;;;;;;5054518;28;1873;-43
2023/02/22 06:03:07;;;;;;;;;;;;;;;;;;5072331;28;1202;-40
2023/02/22 06:05:35;;;;;;;;;;;;;;;;;;5083059;28;1723;-37
2023/02/22 06:08:04;;;;;;;;;;;;;;;;;;5092621;28;1508;-37
2023/02/22 06:10:31;;;;;;;;;;;;;;;;;;5092601;28;1709;-42
2023/02/22 06:12:59;;;;;;;;;;;;;;;;;;5092407;28;1944;-38
2023/02/22 06:15:26;;;;;;;;;;;;;;;;;;5092313;28;1885;-38
2023/02/22 06:17:56;;;;;;;;;;;;;;;;;;5092263;28;1902;-39
2023/02/22 06:20:24;;;;;;;;;;;;;;;;;;5092395;28;1997;-40
2023/02/22 06:22:52;;;;;;;;;;;;;;;;;;5091498;28;1417;-37
2023/02/22 06:25:22;;;;;;;;;;;;;;;;;;5091959;28;1916;-38
2023/02/22 06:27:51;;;;;;;;;;;;;;;;;;5092293;28;1259;-46
2023/02/22 06:30:19;;;;;;;;;;;;;;;;;;5088580;28;1898;-40
2023/02/22 06:32:47;;;;;;;;;;;;;;;;;;5071887;28;1505;-48
2023/02/22 06:35:14;;;;;;;;;;;;;;;;;;5071272;28;1269;-46
2023/02/22 06:37:41;;;;;;;;;;;;;;;;;;5071709;28;1967;-40
2023/02/22 06:40:10;;;;;;;;;;;;;;;;;;5071798;28;2297;-40
2023/02/22 06:42:37;;;;;;;;;;;;;;;;;;5071815;28;1766;-40
2023/02/22 06:45:04;;;;;;;;;;;;;;;;;;5070282;28;1953;-39
2023/02/22 06:47:32;;;;;;;;;;;;;;;;;;5071254;28;1235;-40
2023/02/22 06:49:59;;;;;;;;;;;;;;;;;;5071397;28;2082;-45
2023/02/22 06:52:27;;;;;;;;;;;;;;;;;;5070747;28;1275;-38
2023/02/22 06:54:54;;;;;;;;;;;;;;;;;;5071738;28;1598;-38
2023/02/22 06:57:21;;;;;;;;;;;;;;;;;;5071783;28;1909;-39
2023/02/22 06:59:48;;;;;;;;;;;;;;;;;;5071605;28;1384;-40
2023/02/22 07:02:15;;;;;;;;;;;;;;;;;;5071232;28;1671;-40
2023/02/22 07:04:43;;;;;;;;;;;;;;;;;;5074739;28;1980;-41
2023/02/22 07:07:11;;;;;;;;;;;;;;;;;;5091377;28;1661;-39
2023/02/22 07:09:38;;;;;;;;;;;;;;;;;;5082092;28;1649;-40
2023/02/22 07:12:06;;;;;;;;;;;;;;;;;;5071550;28;2016;-38
2023/02/22 07:14:33;;;;;;;;;;;;;;;;;;5071259;28;1795;-38
2023/02/22 07:17:01;;;;;;;;;;;;;;;;;;5071269;28;2043;-41
2023/02/22 07:19:28;;;;;;;;;;;;;;;;;;5070628;28;1483;-44
2023/02/22 07:21:57;;;;;;;;;;;;;;;;;;5071261;28;1985;-45
2023/02/22 07:24:27;;;;;;;;;;;;;;;;;;5071489;28;1578;-45
2023/02/22 07:26:54;;;;;;;;;;;;;;;;;;5070977;28;1489;-40
2023/02/22 07:29:21;;;;;;;;;;;;;;;;;;5071232;28;1683;-47
2023/02/22 07:31:48;;;;;;;;;;;;;;;;;;5071150;28;1476;-40
2023/02/22 07:34:16;;;;;;;;;;;;;;;;;;5070622;28;1769;-42
2023/02/22 07:36:43;;;;;;;;;;;;;;;;;;5071164;28;1906;-37
2023/02/22 07:39:10;;;;;;;;;;;;;;;;;;5071125;28;1943;-37
2023/02/22 07:41:37;;;;;;;;;;;;;;;;;;5071085;28;1816;-38
2023/02/22 07:44:17;;;;;;;;;;;;;;;;;;5069836;28;1642;-40
2023/02/22 07:46:49;;;;;;;;;;;;;;;;;;5070846;28;1891;-38
2023/02/22 07:49:16;;;;;;;;;;;;;;;;;;5070733;28;1704;-41
2023/02/22 07:51:43;;;;;;;;;;;;;;;;;;5071057;28;1596;-40
2023/02/22 07:54:10;;;;;;;;;;;;;;;;;;5070967;28;2087;-45
2023/02/22 07:56:43;;;;;;;;;;;;;;;;;;5070706;28;1979;-40
2023/02/22 07:59:10;;;;;;;;;;;;;;;;;;5070350;28;1826;-43
2023/02/22 08:01:37;;;;;;;;;;;;;;;;;;5070917;28;1641;-48
2023/02/22 08:04:05;;;;;;;;;;;;;;;;;;5070713;28;1218;-40
2023/02/22 08:06:32;;;;;;;;;;;;;;;;;;5089158;28;1882;-40
2023/02/22 08:08:59;;;;;;;;;;;;;;;;;;5090924;28;1842;-42
2023/02/22 08:11:26;;;;;;;;;;;;;;;;;;5090879;28;2167;-38
2023/02/22 08:13:53;;;;;;;;;;;;;;;;;;5091257;28;1823;-40
2023/02/22 08:16:21;;;;;;;;;;;;;;;;;;5090271;28;1905;-46
2023/02/22 08:18:48;;;;;;;;;;;;;;;;;;5089858;28;1392;-45
2023/02/22 08:21:15;;;;;;;;;;;;;;;;;;5089684;28;1708;-42
2023/02/22 08:23:43;;;;;;;;;;;;;;;;;;5089978;28;2012;-45
2023/02/22 08:26:16;;;;;;;;;;;;;;;;;;5089802;28;1825;-40
2023/02/22 08:28:44;;;;;;;;;;;;;;;;;;5089286;28;1754;-45
2023/02/22 08:31:11;;;;;;;;;;;;;;;;;;5089546;28;1995;-39
2023/02/22 08:33:38;;;;;;;;;;;;;;;;;;5089816;28;1342;-41
2023/02/22 08:36:05;;;;;;;;;;;;;;;;;;5089641;28;2100;-42
2023/02/22 08:38:33;;;;;;;;;;;;;;;;;;5089512;28;1971;-45
2023/02/22 08:41:00;;;;;;;;;;;;;;;;;;5089463;28;2014;-41
2023/02/22 08:43:27;;;;;;;;;;;;;;;;;;5089795;28;1968;-42
2023/02/22 08:45:55;;;;;;;;;;;;;;;;;;5092088;28;1864;-39
2023/02/22 08:48:23;;;;;;;;;;;;;;;;;;5093743;28;2130;-43
2023/02/22 08:50:50;;;;;;;;;;;;;;;;;;5093163;28;1788;-41
2023/02/22 08:53:18;;;;;;;;;;;;;;;;;;5092743;28;1866;-41
2023/02/22 08:55:45;;;;;;;;;;;;;;;;;;5093079;28;1610;-43
2023/02/22 08:58:12;;;;;;;;;;;;;;;;;;5092834;28;1979;-43
2023/02/22 09:00:40;;;;;;;;;;;;;;;;;;5093048;28;1846;-42
2023/02/22 09:03:11;;;;;;;;;;;;;;;;;;5093039;28;1498;-45
2023/02/22 09:05:39;;;;;;;;;;;;;;;;;;5081237;28;1954;-42
2023/02/22 09:08:09;;;;;;;;;;;;;;;;;;5072653;28;2119;-45
2023/02/22 09:10:37;;;;;;;;;;;;;;;;;;5072564;28;2040;-46
2023/02/22 09:13:05;;;;;;;;;;;;;;;;;;5072730;28;1872;-43
2023/02/22 09:15:34;;;;;;;;;;;;;;;;;;5072624;28;1623;-47
2023/02/22 09:18:02;;;;;;;;;;;;;;;;;;5072484;28;1971;-42
2023/02/22 09:20:29;;;;;;;;;;;;;;;;;;5072400;28;1405;-46
2023/02/22 09:22:56;;;;;;;;;;;;;;;;;;5072565;28;1837;-45
2023/02/22 09:25:23;;;;;;;;;;;;;;;;;;5073442;28;1513;-44
2023/02/22 09:27:52;;;;;;;;;;;;;;;;;;5073093;28;2126;-46
2023/02/22 09:30:22;;;;;;;;;;;;;;;;;;5073193;28;1825;-42
2023/02/22 09:32:50;;;;;;;;;;;;;;;;;;5073124;28;1581;-45
2023/02/22 09:35:25;;;;;;;;;;;;;;;;;;5072931;28;1621;-41
2023/02/22 09:37:54;;;;;;;;;;;;;;;;;;5072031;28;2005;-46
2023/02/22 09:40:28;;;;;;;;;;;;;;;;;;5071869;28;1752;-42
2023/02/22 09:43:02;;;;;;;;;;;;;;;;;;5073315;28;1853;-43
2023/02/22 09:45:43;;;;;;;;;;;;;;;;;;5071392;28;2193;-45
2023/02/22 09:48:14;;;;;;;;;;;;;;;;;;5072917;28;1336;-41
2023/02/22 09:50:50;;;;;;;;;;;;;;;;;;5072976;28;1787;-44
2023/02/22 09:53:35;;;;;;;;;;;;;;;;;;5072524;28;2089;-41
2023/02/22 09:56:09;;;;;;;;;;;;;;;;;;5073054;28;2038;-47
2023/02/22 09:59:03;;;;;;;;;;;;;;;;;;5072677;28;1974;-43
2023/02/22 10:01:38;;;;;;;;;;;;;;;;;;5070229;28;1650;-44
2023/02/22 10:04:05;;;;;;;;;;;;;;;;;;5072358;28;2099;-47
2023/02/22 10:06:33;;;;;;;;;;;;;;;;;;5072581;28;1434;-46
2023/02/22 10:09:07;;;;;;;;;;;;;;;;;;5071595;28;2010;-45
2023/02/22 10:11:37;;;;;;;;;;;;;;;;;;5071426;28;2187;-44
2023/02/22 10:14:23;;;;;;;;;;;;;;;;;;5072481;28;2020;-45
2023/02/22 10:17:03;;;;;;;;;;;;;;;;;;5072249;28;1912;-39
2023/02/22 10:19:33;;;;;;;;;;;;;;;;;;5072247;28;2012;-42
2023/02/22 10:22:14;;;;;;;;;;;;;;;;;;5072189;28;2118;-42
2023/02/22 10:24:51;;;;;;;;;;;;;;;;;;5073994;28;1988;-42
2023/02/22 10:27:20;;;;;;;;;;;;;;;;;;5091931;28;2106;-45
2023/02/22 10:29:51;;;;;;;;;;;;;;;;;;5091345;28;1959;-42
2023/02/22 10:32:22;;;;;;;;;;;;;;;;;;5091231;28;2063;-45
2023/02/22 10:34:50;;;;;;;;;;;;;;;;;;5091085;28;1531;-41
2023/02/22 10:37:28;;;;;;;;;;;;;;;;;;5090642;28;1981;-43
2023/02/22 10:40:14;;;;;;;;;;;;;;;;;;5091139;28;1541;-42
2023/02/22 10:42:43;;;;;;;;;;;;;;;;;;5091221;28;1700;-41
2023/02/22 10:45:40;;;;;;;;;;;;;;;;;;5091071;28;1856;-39
2023/02/22 10:48:10;;;;;;;;;;;;;;;;;;5070346;28;2071;-45
2023/02/22 10:50:39;;;;;;;;;;;;;;;;;;5090715;28;2256;-42
2023/02/22 10:53:07;;;;;;;;;;;;;;;;;;5091139;28;1838;-39
2023/02/22 10:55:34;;;;;;;;;;;;;;;;;;5091331;28;1800;-42
2023/02/22 10:58:05;;;;;;;;;;;;;;;;;;5091495;28;2003;-42
2023/02/22 11:00:37;;;;;;;;;;;;;;;;;;5091958;28;1862;-41
2023/02/22 11:03:15;;;;;;;;;;;;;;;;;;5091614;28;1668;-43
2023/02/22 11:05:43;;;;;;;;;;;;;;;;;;5079877;28;1849;-42
2023/02/22 11:08:22;;;;;;;;;;;;;;;;;;5070952;28;1920;-40
2023/02/22 11:10:51;;;;;;;;;;;;;;;;;;5071231;28;2069;-42
2023/02/22 11:13:26;;;;;;;;;;;;;;;;;;5071139;28;1999;-43
2023/02/22 11:15:58;;;;;;;;;;;;;;;;;;5071523;28;1935;-43
2023/02/22 11:18:31;;;;;;;;;;;;;;;;;;5071256;28;2037;-41
2023/02/22 11:21:06;;;;;;;;;;;;;;;;;;5071203;28;1987;-44
2023/02/22 11:23:34;;;;;;;;;;;;;;;;;;5071161;28;1893;-40
2023/02/22 11:26:07;;;;;;;;;;;;;;;;;;5071145;28;1288;-39
2023/02/22 11:28:36;;;;;;;;;;;;;;;;;;5071142;28;2127;-40
2023/02/22 11:31:09;;;;;;;;;;;;;;;;;;5070221;28;1511;-43
2023/02/22 11:33:37;;;;;;;;;;;;;;;;;;5070451;28;1728;-42
2023/02/22 11:36:07;;;;;;;;;;;;;;;;;;5070909;28;1699;-45
2023/02/22 11:38:36;;;;;;;;;;;;;;;;;;5071111;28;1910;-42
2023/02/22 11:41:17;;;;;;;;;;;;;;;;;;5070731;28;2061;-44
2023/02/22 11:43:46;;;;;;;;;;;;;;;;;;5071162;28;1813;-46
2023/02/22 11:46:25;;;;;;;;;;;;;;;;;;5070874;28;2091;-43
2023/02/22 11:48:58;;;;;;;;;;;;;;;;;;5071065;28;2083;-40
2023/02/22 11:51:46;;;;;;;;;;;;;;;;;;5070616;28;2062;-46
2023/02/22 11:54:27;;;;;;;;;;;;;;;;;;5060460;28;2025;-44
2023/02/22 11:57:00;;;;;;;;;;;;;;;;;;5071044;28;1699;-42
2023/02/22 11:59:34;;;;;;;;;;;;;;;;;;5070782;28;1983;-41
2023/02/22 12:02:21;;;;;;;;;;;;;;;;;;5070711;28;1928;-39
2023/02/22 12:04:54;;;;;;;;;;;;;;;;;;5075081;28;1804;-40
2023/02/22 12:07:34;;;;;;;;;;;;;;;;;;5090981;28;1840;-43
2023/02/22 12:10:25;;;;;;;;;;;;;;;;;;5090555;28;1901;-42
2023/02/22 12:12:57;;;;;;;;;;;;;;;;;;5090000;28;2120;-39
2023/02/22 12:15:35;;;;;;;;;;;;;;;;;;5089999;28;1457;-39
2023/02/22 12:18:32;;;;;;;;;;;;;;;;;;5089546;28;1912;-43
2023/02/22 12:21:01;;;;;;;;;;;;;;;;;;5079390;28;1819;-38
2023/02/22 12:23:43;;;;;;;;;;;;;;;;;;5075542;28;1744;-39
2023/02/22 12:26:18;;;;;;;;;;;;;;;;;;5093637;28;2019;-43
2023/02/22 12:28:58;;;;;;;;;;;;;;;;;;5093333;28;1148;-44
2023/02/22 12:31:32;;;;;;;;;;;;;;;;;;5093521;28;1902;-41
2023/02/22 12:34:00;;;;;;;;;;;;;;;;;;5092885;28;1578;-42
2023/02/22 12:36:32;;;;;;;;;;;;;;;;;;5093592;28;1637;-39
2023/02/22 12:39:04;;;;;;;;;;;;;;;;;;5092988;28;1986;-45
2023/02/22 12:41:38;;;;;;;;;;;;;;;;;;5093327;28;1589;-41
2023/02/22 12:44:08;;;;;;;;;;;;;;;;;;5093241;28;1895;-42
2023/02/22 12:46:39;;;;;;;;;;;;;;;;;;5093091;28;2035;-42
2023/02/22 12:49:06;;;;;;;;;;;;;;;;;;5093341;28;1912;-44
2023/02/22 12:51:33;;;;;;;;;;;;;;;;;;5093083;28;2053;-40
2023/02/22 12:54:15;;;;;;;;;;;;;;;;;;5093118;28;2230;-40
2023/02/22 12:57:08;;;;;;;;;;;;;;;;;;5093009;28;1737;-43
2023/02/22 12:59:36;;;;;;;;;;;;;;;;;;5061910;28;2138;-41
2023/02/22 13:02:11;;;;;;;;;;;;;;;;;;5092996;28;2279;-41
2023/02/22 13:04:39;;;;;;;;;;;;;;;;;;5089515;28;1949;-39
2023/02/22 13:07:13;;;;;;;;;;;;;;;;;;5072607;28;1994;-40
2023/02/22 13:09:49;;;;;;;;;;;;;;;;;;5072485;28;2096;-42
2023/02/22 13:12:28;;;;;;;;;;;;;;;;;;5072770;28;1993;-42
2023/02/22 13:15:02;;;;;;;;;;;;;;;;;;5072469;28;1382;-42
2023/02/22 13:17:39;;;;;;;;;;;;;;;;;;5072464;28;1987;-41
2023/02/22 13:20:33;;;;;;;;;;;;;;;;;;5053993;28;2024;-40
2023/02/22 13:23:04;;;;;;;;;;;;;;;;;;5041694;28;1888;-44
2023/02/22 13:25:36;;;;;;;;;;;;;;;;;;5072933;28;1978;-42
2023/02/22 13:28:22;;;;;;;;;;;;;;;;;;5073281;28;1894;-38
2023/02/22 13:31:00;;;;;;;;;;;;;;;;;;5072161;28;2105;-40
2023/02/22 13:33:46;;;;;;;;;;;;;;;;;;5071817;28;1946;-41
2023/02/22 13:36:16;;;;;;;;;;;;;;;;;;5071841;28;1899;-39
2023/02/22 13:39:06;;;;;;;;;;;;;;;;;;5071769;28;1913;-39
2023/02/22 13:41:34;;;;;;;;;;;;;;;;;;5071730;28;1590;-41
2023/02/22 13:44:27;;;;;;;;;;;;;;;;;;5071854;28;1880;-38
2023/02/22 13:47:13;;;;;;;;;;;;;;;;;;5056039;28;1438;-41
2023/02/22 13:49:54;;;;;;;;;;;;;;;;;;5071921;28;1772;-39
2023/02/22 13:52:28;;;;;;;;;;;;;;;;;;5088407;28;1995;-39
2023/02/22 13:55:00;;;;;;;;;;;;;;;;;;5093261;28;1663;-42
2023/02/22 13:57:39;;;;;;;;;;;;;;;;;;5074298;28;2055;-40
2023/02/22 14:00:17;;;;;;;;;;;;;;;;;;5092817;28;1790;-39
2023/02/22 14:02:59;;;;;;;;;;;;;;;;;;5092909;28;1724;-40
2023/02/22 14:05:48;;;;;;;;;;;;;;;;;;5082320;28;1887;-42
2023/02/22 14:08:16;;;;;;;;;;;;;;;;;;5072306;28;1991;-39
2023/02/22 14:10:45;;;;;;;;;;;;;;;;;;5072033;28;1707;-39
2023/02/22 14:13:17;;;;;;;;;;;;;;;;;;5092880;28;1623;-41
2023/02/22 14:15:56;;;;;;;;;;;;;;;;;;5082931;28;2111;-38
2023/02/22 14:18:25;;;;;;;;;;;;;;;;;;5071928;28;1911;-44
2023/02/22 14:21:13;;;;;;;;;;;;;;;;;;5072084;28;1810;-38
2023/02/22 14:23:41;;;;;;;;;;;;;;;;;;5071997;28;1833;-41
2023/02/22 14:26:13;;;;;;;;;;;;;;;;;;5072241;28;1242;-40
2023/02/22 14:28:41;;;;;;;;;;;;;;;;;;5071561;28;1422;-42
2023/02/22 14:31:11;;;;;;;;;;;;;;;;;;5071836;28;1842;-41
2023/02/22 14:34:05;;;;;;;;;;;;;;;;;;5071741;28;1870;-42
2023/02/22 14:36:36;;;;;;;;;;;;;;;;;;5071338;28;2225;-38
2023/02/22 14:39:15;;;;;;;;;;;;;;;;;;5071472;28;1902;-38
2023/02/22 14:41:47;;;;;;;;;;;;;;;;;;5071827;28;1822;-44
2023/02/22 14:44:19;;;;;;;;;;;;;;;;;;5070985;28;1606;-39
2023/02/22 14:46:48;;;;;;;;;;;;;;;;;;5071584;28;1453;-43
2023/02/22 14:49:19;;;;;;;;;;;;;;;;;;5053396;28;1783;-41
2023/02/22 14:51:58;;;;;;;;;;;;;;;;;;5071592;28;1526;-42
2023/02/22 14:54:30;;;;;;;;;;;;;;;;;;5071812;28;1701;-42
2023/02/22 14:57:20;;;;;;;;;;;;;;;;;;5071873;28;2172;-42
2023/02/22 15:00:18;;;;;;;;;;;;;;;;;;5071184;28;1898;-43
2023/02/22 15:02:46;;;;;;;;;;;;;;;;;;5067448;28;1931;-41
2023/02/22 15:05:15;;;;;;;;;;;;;;;;;;5071379;28;1606;-37
2023/02/22 15:07:52;;;;;;;;;;;;;;;;;;5071236;28;1814;-35
2023/02/22 15:10:30;;;;;;;;;;;;;;;;;;5070943;28;1783;-39
2023/02/22 15:13:09;;;;;;;;;;;;;;;;;;5071251;28;1264;-44
2023/02/22 15:15:47;;;;;;;;;;;;;;;;;;5071238;28;1767;-44
2023/02/22 15:18:28;;;;;;;;;;;;;;;;;;5071011;28;2345;-44
2023/02/22 15:20:57;;;;;;;;;;;;;;;;;;5071149;28;1824;-43
2023/02/22 15:23:29;;;;;;;;;;;;;;;;;;5071376;28;1840;-44
2023/02/22 15:25:56;;;;;;;;;;;;;;;;;;5071339;28;1863;-43
2023/02/22 15:28:26;;;;;;;;;;;;;;;;;;5071252;28;1482;-43
2023/02/22 15:31:13;;;;;;;;;;;;;;;;;;5071177;28;1847;-46
2023/02/22 15:33:40;;;;;;;;;;;;;;;;;;5071020;28;1832;-42
2023/02/22 15:36:13;;;;;;;;;;;;;;;;;;5070878;28;1833;-42
2023/02/22 15:38:46;;;;;;;;;;;;;;;;;;5076043;28;2099;-46
2023/02/22 15:41:19;;;;;;;;;;;;;;;;;;5090987;28;1847;-47
2023/02/22 15:43:59;;;;;;;;;;;;;;;;;;5091110;28;1951;-43
2023/02/22 15:46:31;;;;;;;;;;;;;;;;;;5091004;28;2278;-46
2023/02/22 15:49:11;;;;;;;;;;;;;;;;;;5090182;28;1998;-42
2023/02/22 15:51:40;;;;;;;;;;;;;;;;;;5090996;28;1549;-47
2023/02/22 15:54:14;;;;;;;;;;;;;;;;;;5091991;28;1932;-44
2023/02/22 15:56:55;;;;;;;;;;;;;;;;;;5095401;28;1458;-40
2023/02/22 15:59:28;;;;;;;;;;;;;;;;;;5094936;28;1916;-45
2023/02/22 16:01:56;;;;;;;;;;;;;;;;;;5095319;28;2305;-42
2023/02/22 16:04:25;;;;;;;;;;;;;;;;;;5094259;28;1809;-44
2023/02/22 16:07:01;;;;;;;;;;;;;;;;;;5074750;28;1834;-42
2023/02/22 16:09:29;;;;;;;;;;;;;;;;;;5074837;28;1811;-42
2023/02/22 16:12:19;;;;;;;;;;;;;;;;;;5074155;28;2241;-42
2023/02/22 16:14:51;;;;;;;;;;;;;;;;;;5066862;28;2219;-43
2023/02/22 16:17:24;;;;;;;;;;;;;;;;;;5074355;28;1836;-42
2023/02/22 16:19:52;;;;;;;;;;;;;;;;;;5073839;28;1890;-42
2023/02/22 16:22:37;;;;;;;;;;;;;;;;;;5074340;28;2272;-44
2023/02/22 16:25:16;;;;;;;;;;;;;;;;;;5074451;28;1974;-44
2023/02/22 16:27:48;;;;;;;;;;;;;;;;;;5074221;28;1726;-44
2023/02/22 16:30:31;;;;;;;;;;;;;;;;;;5074435;28;1213;-47
2023/02/22 16:32:59;;;;;;;;;;;;;;;;;;5074285;28;2126;-47
2023/02/22 16:35:27;;;;;;;;;;;;;;;;;;5074383;28;2120;-41
2023/02/22 16:37:59;;;;;;;;;;;;;;;;;;5073863;28;2112;-43
2023/02/22 16:40:31;;;;;;;;;;;;;;;;;;5074057;28;1911;-40
2023/02/22 16:42:59;;;;;;;;;;;;;;;;;;5074327;28;1590;-42
2023/02/22 16:45:26;;;;;;;;;;;;;;;;;;5074251;28;1998;-41
2023/02/22 16:47:54;;;;;;;;;;;;;;;;;;5073743;28;1595;-43
2023/02/22 16:50:22;;;;;;;;;;;;;;;;;;5073812;28;1391;-45
2023/02/22 16:52:52;;;;;;;;;;;;;;;;;;5073847;28;1758;-42
2023/02/22 16:55:20;;;;;;;;;;;;;;;;;;5073971;28;1360;-44
2023/02/22 16:57:47;;;;;;;;;;;;;;;;;;5073552;28;1947;-41
2023/02/22 17:00:29;;;;;;;;;;;;;;;;;;5073624;28;1978;-45
2023/02/22 17:02:58;;;;;;;;;;;;;;;;;;5073529;28;1406;-44
2023/02/22 17:05:25;;;;;;;;;;;;;;;;;;5073104;28;1661;-45
2023/02/22 17:07:53;;;;;;;;;;;;;;;;;;5073527;28;1771;-44
2023/02/22 17:10:21;;;;;;;;;;;;;;;;;;5073810;28;1668;-41
2023/02/22 17:12:49;;;;;;;;;;;;;;;;;;5073474;28;1371;-41
2023/02/22 17:15:20;;;;;;;;;;;;;;;;;;5073368;28;2279;-41
2023/02/22 17:17:48;;;;;;;;;;;;;;;;;;5073389;28;1434;-42
2023/02/22 17:20:23;;;;;;;;;;;;;;;;;;5055540;28;1977;-37
2023/02/22 17:22:51;;;;;;;;;;;;;;;;;;5073174;28;1688;-42
2023/02/22 17:25:19;;;;;;;;;;;;;;;;;;5073025;28;1981;-44
2023/02/22 17:27:47;;;;;;;;;;;;;;;;;;5073262;28;1827;-42
2023/02/22 17:30:15;;;;;;;;;;;;;;;;;;5073286;28;2161;-46
2023/02/22 17:32:43;;;;;;;;;;;;;;;;;;5073280;28;1346;-44
2023/02/22 17:35:10;;;;;;;;;;;;;;;;;;5073045;28;1789;-40